Time;durP1;ratioP1;P1;durP2;ratioP2;P2;SDS_P1;SDS_P2;PMS_P1;PMS_P2;Temp;Humidity;BMP_temperature;BMP_pressure;BME280_temperature;BME280_humidity;BME280_pressure;Samples;Min_cycle;Max_cycle;Signal;HPM_P1;HPM_P2
2023/12/05 00:01:06;;;;;;;24.85;12.25;;;;;;;;;;6189990;28;20042;-78
2023/12/05 00:04:07;;;;;;;36.97;14.82;;;;;;;;;;6223485;28;20042;-79
2023/12/05 00:07:09;;;;;;;31.80;13.85;;;;;;;;;;6199455;28;20049;-80
2023/12/05 00:10:11;;;;;;;25.15;10.75;;;;;;;;;;6210026;28;20049;-78
2023/12/05 00:13:13;;;;;;;22.45;10.68;;;;;;;;;;6210034;28;20067;-78
2023/12/05 00:16:15;;;;;;;46.60;15.32;;;;;;;;;;6207711;28;20042;-79
2023/12/05 00:19:16;;;;;;;27.67;10.75;;;;;;;;;;6208951;28;20045;-79
2023/12/05 00:22:18;;;;;;;23.58;10.75;;;;;;;;;;6205967;28;20554;-79
2023/12/05 00:25:20;;;;;;;39.55;15.30;;;;;;;;;;6206556;28;20054;-77
2023/12/05 00:28:22;;;;;;;21.83;10.13;;;;;;;;;;6205567;28;20041;-79
2023/12/05 00:31:24;;;;;;;65.30;20.23;;;;;;;;;;6202667;28;20042;-77
2023/12/05 00:34:26;;;;;;;23.45;11.13;;;;;;;;;;6205878;28;20073;-80
2023/12/05 00:37:28;;;;;;;27.90;11.75;;;;;;;;;;6207287;28;20185;-81
2023/12/05 00:40:30;;;;;;;21.75;10.27;;;;;;;;;;6207111;28;20060;-80
2023/12/05 00:43:32;;;;;;;25.60;11.68;;;;;;;;;;6205966;28;20045;-81
2023/12/05 00:46:33;;;;;;;50.53;16.02;;;;;;;;;;6197882;28;20049;-79
2023/12/05 00:49:35;;;;;;;58.45;20.38;;;;;;;;;;6208713;28;20041;-79
2023/12/05 00:52:37;;;;;;;28.98;11.32;;;;;;;;;;6207793;28;20050;-78
2023/12/05 00:55:39;;;;;;;22.60;10.68;;;;;;;;;;6198325;28;20496;-83
2023/12/05 00:58:40;;;;;;;51.92;17.48;;;;;;;;;;6209204;28;20053;-81
2023/12/05 01:01:42;;;;;;;24.70;11.15;;;;;;;;;;6208276;28;20054;-80
2023/12/05 01:04:44;;;;;;;27.48;11.48;;;;;;;;;;6212159;28;20046;-78
2023/12/05 01:07:47;;;;;;;23.17;10.97;;;;;;;;;;6206776;28;20053;-78
2023/12/05 01:10:48;;;;;;;24.77;10.77;;;;;;;;;;6217827;28;20065;-79
2023/12/05 01:13:50;;;;;;;30.77;11.80;;;;;;;;;;6207746;28;20057;-78
2023/12/05 01:16:52;;;;;;;25.38;10.68;;;;;;;;;;6210561;28;20776;-80
2023/12/05 01:19:54;;;;;;;19.25;9.23;;;;;;;;;;6211733;28;20057;-79
2023/12/05 01:22:56;;;;;;;22.17;10.07;;;;;;;;;;6212239;28;20591;-81
2023/12/05 01:25:58;;;;;;;22.48;9.98;;;;;;;;;;6194408;28;20073;-79
2023/12/05 01:28:59;;;;;;;25.65;11.38;;;;;;;;;;6213157;28;20423;-78
2023/12/05 01:32:01;;;;;;;20.55;9.65;;;;;;;;;;6208616;28;20068;-81
2023/12/05 01:35:03;;;;;;;32.47;13.13;;;;;;;;;;6210257;28;20047;-80
2023/12/05 01:38:05;;;;;;;19.48;9.80;;;;;;;;;;6216883;28;20053;-79
2023/12/05 01:41:07;;;;;;;21.15;9.82;;;;;;;;;;6213817;28;20060;-78
2023/12/05 01:44:09;;;;;;;36.92;14.20;;;;;;;;;;6207114;28;20080;-79
2023/12/05 01:47:13;;;;;;;23.75;10.02;;;;;;;;;;6210999;28;20052;-81
2023/12/05 01:50:18;;;;;;;26.33;11.45;;;;;;;;;;6211995;28;20127;-78
2023/12/05 01:53:22;;;;;;;29.20;12.52;;;;;;;;;;6210834;28;20057;-81
2023/12/05 01:56:24;;;;;;;24.40;11.23;;;;;;;;;;6204059;28;20070;-80
2023/12/05 01:59:26;;;;;;;27.13;11.75;;;;;;;;;;6216909;28;20045;-78
2023/12/05 02:02:28;;;;;;;33.10;14.15;;;;;;;;;;6225528;28;20060;-78
2023/12/05 02:05:30;;;;;;;36.38;13.27;;;;;;;;;;6218725;28;20980;-78
2023/12/05 02:08:33;;;;;;;38.37;13.07;;;;;;;;;;6215543;28;20590;-79
2023/12/05 02:11:36;;;;;;;35.58;12.00;;;;;;;;;;6222939;28;20052;-80
2023/12/05 02:14:38;;;;;;;29.13;11.13;;;;;;;;;;6200795;28;20052;-79
2023/12/05 02:18:05;;;;;;;20.65;9.57;;;;;;;;;;6208573;28;20050;-82
2023/12/05 02:21:18;;;;;;;19.10;8.43;;;;;;;;;;6227519;28;20504;-80
2023/12/05 02:24:34;;;;;;;20.67;9.05;;;;;;;;;;6208552;28;20042;-80
2023/12/05 02:27:39;;;;;;;20.70;9.35;;;;;;;;;;6207271;28;20042;-81
2023/12/05 02:30:41;;;;;;;26.20;10.70;;;;;;;;;;6213352;28;20054;-80
2023/12/05 02:33:43;;;;;;;16.88;8.27;;;;;;;;;;6219351;28;20085;-80
2023/12/05 02:37:11;;;;;;;19.25;8.50;;;;;;;;;;6207577;28;20046;-79
2023/12/05 02:40:40;;;;;;;13.20;6.70;;;;;;;;;;6205586;28;20053;-79
2023/12/05 02:43:48;;;;;;;17.90;7.80;;;;;;;;;;6179088;28;20073;-80
2023/12/05 02:46:50;;;;;;;15.52;7.25;;;;;;;;;;6191515;28;20482;-82
2023/12/05 02:49:52;;;;;;;14.00;7.80;;;;;;;;;;6211541;28;20053;-80
2023/12/05 02:52:54;;;;;;;17.50;7.30;;;;;;;;;;6193264;28;20566;-82
2023/12/05 02:55:56;;;;;;;17.42;8.05;;;;;;;;;;6212400;28;20041;-80
2023/12/05 02:58:58;;;;;;;15.13;7.05;;;;;;;;;;6191013;28;20100;-81
2023/12/05 03:02:00;;;;;;;12.32;6.68;;;;;;;;;;6207953;28;20176;-82
2023/12/05 03:05:03;;;;;;;14.80;7.18;;;;;;;;;;6209804;28;20061;-81
2023/12/05 03:08:05;;;;;;;14.52;7.32;;;;;;;;;;6210548;28;20041;-79
2023/12/05 03:11:07;;;;;;;17.98;7.72;;;;;;;;;;6207358;28;20054;-78
2023/12/05 03:14:10;;;;;;;;;;;;;;;;;;6211028;28;20061;-81
2023/12/05 03:17:12;;;;;;;16.00;6.32;;;;;;;;;;6209279;28;20892;-77
2023/12/05 03:20:14;;;;;;;16.42;7.65;;;;;;;;;;6221262;28;20046;-78
2023/12/05 03:23:17;;;;;;;14.93;7.80;;;;;;;;;;6220214;28;20050;-80
2023/12/05 03:26:22;;;;;;;13.98;7.55;;;;;;;;;;6204776;28;20161;-81
2023/12/05 03:29:24;;;;;;;16.15;7.93;;;;;;;;;;6204533;28;20067;-80
2023/12/05 03:32:26;;;;;;;16.80;7.63;;;;;;;;;;6204362;28;20042;-79
2023/12/05 03:35:28;;;;;;;19.55;8.85;;;;;;;;;;6207952;28;20534;-78
2023/12/05 03:38:30;;;;;;;16.65;8.40;;;;;;;;;;6203408;28;20680;-80
2023/12/05 03:41:32;;;;;;;21.27;8.50;;;;;;;;;;6200342;28;20042;-79
2023/12/05 03:44:33;;;;;;;19.10;8.48;;;;;;;;;;6207129;28;20069;-81
2023/12/05 03:47:35;;;;;;;22.20;9.25;;;;;;;;;;6207429;28;20046;-78
2023/12/05 03:50:37;;;;;;;22.50;8.60;;;;;;;;;;6205418;28;20054;-78
2023/12/05 03:53:39;;;;;;;29.73;10.60;;;;;;;;;;6200688;28;20049;-79
2023/12/05 03:56:41;;;;;;;25.02;9.80;;;;;;;;;;6210075;28;20977;-80
2023/12/05 03:59:44;;;;;;;29.02;9.82;;;;;;;;;;6203332;28;20110;-81
2023/12/05 04:02:46;;;;;;;26.85;11.05;;;;;;;;;;6199153;28;20053;-83
2023/12/05 04:05:48;;;;;;;26.23;10.80;;;;;;;;;;6224440;28;20523;-79
2023/12/05 04:08:50;;;;;;;23.75;9.75;;;;;;;;;;6205379;28;20558;-81
2023/12/05 04:11:52;;;;;;;26.20;10.55;;;;;;;;;;6206426;28;20049;-81
2023/12/05 04:14:54;;;;;;;27.48;11.32;;;;;;;;;;6204060;28;20721;-80
2023/12/05 04:17:56;;;;;;;30.13;11.30;;;;;;;;;;6195772;28;20056;-80
2023/12/05 04:20:58;;;;;;;29.50;11.20;;;;;;;;;;6194128;28;20124;-80
2023/12/05 04:24:00;;;;;;;32.30;12.63;;;;;;;;;;6201694;28;20041;-79
2023/12/05 04:27:02;;;;;;;31.85;11.98;;;;;;;;;;6202546;28;20056;-80
2023/12/05 04:30:05;;;;;;;33.72;12.77;;;;;;;;;;6213664;28;20046;-81
2023/12/05 04:33:07;;;;;;;34.88;12.77;;;;;;;;;;6203828;28;20050;-78
2023/12/05 04:36:09;;;;;;;34.35;12.35;;;;;;;;;;6196492;28;20060;-79
2023/12/05 04:39:12;;;;;;;34.65;12.43;;;;;;;;;;6208566;28;20423;-79
2023/12/05 04:42:14;;;;;;;30.40;12.10;;;;;;;;;;6203958;28;20101;-81
2023/12/05 04:45:16;;;;;;;32.72;12.20;;;;;;;;;;6187086;28;20067;-81
2023/12/05 04:48:18;;;;;;;30.90;12.20;;;;;;;;;;6205893;28;20042;-79
2023/12/05 04:51:20;;;;;;;31.77;11.10;;;;;;;;;;6203392;28;22013;-78
2023/12/05 04:54:22;;;;;;;34.67;12.63;;;;;;;;;;6204761;28;20538;-78
2023/12/05 04:57:23;;;;;;;27.83;12.23;;;;;;;;;;6215705;28;20157;-78
2023/12/05 05:00:25;;;;;;;32.92;11.98;;;;;;;;;;6194873;28;20054;-77
2023/12/05 05:03:27;;;;;;;29.15;11.07;;;;;;;;;;6210998;28;20069;-79
2023/12/05 05:06:32;;;;;;;34.60;11.65;;;;;;;;;;6224789;28;20426;-79
2023/12/05 05:09:35;;;;;;;34.55;12.93;;;;;;;;;;6208290;28;20639;-80
2023/12/05 05:12:37;;;;;;;32.97;11.88;;;;;;;;;;6201913;28;20484;-80
2023/12/05 05:15:39;;;;;;;36.38;12.32;;;;;;;;;;6224947;28;20045;-77
2023/12/05 05:18:41;;;;;;;38.08;13.50;;;;;;;;;;6212576;28;20046;-80
2023/12/05 05:21:43;;;;;;;35.70;12.80;;;;;;;;;;6194301;28;20080;-78
2023/12/05 05:24:44;;;;;;;35.63;13.27;;;;;;;;;;6184133;28;20157;-79
2023/12/05 05:27:46;;;;;;;35.22;13.77;;;;;;;;;;6205642;28;20042;-80
2023/12/05 05:30:48;;;;;;;42.55;15.15;;;;;;;;;;6204901;28;20046;-80
2023/12/05 05:33:50;;;;;;;34.80;13.43;;;;;;;;;;6195724;28;20042;-77
2023/12/05 05:36:52;;;;;;;39.22;16.27;;;;;;;;;;6202766;28;20054;-77
2023/12/05 05:39:54;;;;;;;39.63;13.63;;;;;;;;;;6200826;28;20042;-79
2023/12/05 05:42:56;;;;;;;50.13;18.42;;;;;;;;;;6204166;28;20042;-78
2023/12/05 05:45:58;;;;;;;49.40;19.23;;;;;;;;;;6200323;28;20046;-77
2023/12/05 05:49:00;;;;;;;39.10;15.93;;;;;;;;;;6204717;28;20540;-79
2023/12/05 05:52:03;;;;;;;48.83;17.73;;;;;;;;;;6189212;28;20057;-78
2023/12/05 05:55:06;;;;;;;56.70;20.58;;;;;;;;;;6200062;28;20372;-79
2023/12/05 05:58:10;;;;;;;46.67;19.02;;;;;;;;;;6199771;28;20099;-80
2023/12/05 06:01:12;;;;;;;40.72;18.40;;;;;;;;;;6201452;28;20057;-80
2023/12/05 06:04:14;;;;;;;49.40;18.48;;;;;;;;;;6212341;28;20042;-80
2023/12/05 06:07:16;;;;;;;50.15;17.45;;;;;;;;;;6205468;28;20239;-80
2023/12/05 06:10:19;;;;;;;50.45;17.65;;;;;;;;;;6206892;28;20038;-79
2023/12/05 06:13:20;;;;;;;88.20;23.08;;;;;;;;;;6201016;28;20080;-81
2023/12/05 06:16:22;;;;;;;70.40;22.20;;;;;;;;;;6197681;28;20547;-80
2023/12/05 06:19:24;;;;;;;69.47;22.20;;;;;;;;;;6202709;28;20045;-79
2023/12/05 06:22:26;;;;;;;65.55;22.08;;;;;;;;;;6205049;28;20042;-79
2023/12/05 06:25:27;;;;;;;72.10;26.33;;;;;;;;;;6193181;28;20546;-79
2023/12/05 06:28:29;;;;;;;55.83;18.58;;;;;;;;;;6205718;28;20053;-80
2023/12/05 06:31:31;;;;;;;53.20;18.40;;;;;;;;;;6203508;28;20487;-79
2023/12/05 06:34:33;;;;;;;63.78;22.63;;;;;;;;;;6203702;28;20046;-76
2023/12/05 06:37:35;;;;;;;67.05;23.00;;;;;;;;;;6208088;28;20184;-79
2023/12/05 06:40:37;;;;;;;67.57;23.33;;;;;;;;;;6211321;28;20042;-77
2023/12/05 06:43:40;;;;;;;69.97;22.35;;;;;;;;;;6206669;28;20063;-78
2023/12/05 06:46:42;;;;;;;47.78;15.15;;;;;;;;;;6205700;28;20046;-80
2023/12/05 06:49:47;;;;;;;43.97;15.80;;;;;;;;;;6207050;28;20041;-78
2023/12/05 06:52:50;;;;;;;45.45;18.25;;;;;;;;;;6179883;28;20058;-76
2023/12/05 06:55:55;;;;;;;48.97;16.60;;;;;;;;;;6195294;28;20105;-80
2023/12/05 06:58:58;;;;;;;42.90;15.27;;;;;;;;;;6184953;28;20683;-80
2023/12/05 07:02:00;;;;;;;33.35;14.98;;;;;;;;;;6197400;28;20092;-80
2023/12/05 07:05:04;;;;;;;37.83;14.63;;;;;;;;;;6204072;28;20056;-80
2023/12/05 07:08:08;;;;;;;40.00;14.88;;;;;;;;;;6186555;28;20091;-81
2023/12/05 07:11:10;;;;;;;37.22;16.20;;;;;;;;;;6206014;28;20045;-80
2023/12/05 07:14:13;;;;;;;40.78;15.75;;;;;;;;;;6204936;28;20053;-79
2023/12/05 07:17:15;;;;;;;34.92;14.20;;;;;;;;;;6201467;28;20092;-80
2023/12/05 07:20:16;;;;;;;38.63;14.75;;;;;;;;;;6214762;28;20049;-80
2023/12/05 07:23:18;;;;;;;61.35;23.58;;;;;;;;;;6197559;28;20092;-78
2023/12/05 07:26:20;;;;;;;75.25;27.42;;;;;;;;;;6216872;28;20204;-79
2023/12/05 07:29:21;;;;;;;42.13;16.23;;;;;;;;;;6207984;28;20065;-77
2023/12/05 07:32:23;;;;;;;40.22;15.27;;;;;;;;;;6205065;28;20743;-79
2023/12/05 07:35:25;;;;;;;38.25;14.80;;;;;;;;;;6189088;28;20585;-77
2023/12/05 07:38:26;;;;;;;65.05;21.35;;;;;;;;;;6204396;28;20492;-76
2023/12/05 07:41:28;;;;;;;94.85;26.23;;;;;;;;;;6201012;28;20046;-77
2023/12/05 07:44:30;;;;;;;74.80;22.77;;;;;;;;;;6205976;28;20060;-78
2023/12/05 07:47:32;;;;;;;54.47;19.27;;;;;;;;;;6180132;28;20061;-79
2023/12/05 07:50:34;;;;;;;43.15;17.52;;;;;;;;;;6193786;28;20107;-77
2023/12/05 07:53:35;;;;;;;48.53;18.85;;;;;;;;;;6210763;28;20056;-78
2023/12/05 07:56:38;;;;;;;56.85;21.42;;;;;;;;;;6203504;28;20447;-78
2023/12/05 07:59:39;;;;;;;49.00;19.05;;;;;;;;;;6205771;28;20038;-79
2023/12/05 08:02:42;;;;;;;38.20;17.73;;;;;;;;;;6208624;28;20049;-78
2023/12/05 08:05:44;;;;;;;38.63;16.55;;;;;;;;;;6203758;28;20068;-79
2023/12/05 08:08:46;;;;;;;40.33;15.63;;;;;;;;;;6206197;28;20050;-78
2023/12/05 08:11:48;;;;;;;42.92;16.25;;;;;;;;;;6202984;28;20525;-78
2023/12/05 08:14:49;;;;;;;39.25;15.35;;;;;;;;;;6200838;28;20495;-79
2023/12/05 08:17:51;;;;;;;39.28;16.80;;;;;;;;;;6195464;28;20056;-79
2023/12/05 08:20:53;;;;;;;39.38;16.90;;;;;;;;;;6200346;28;20184;-80
2023/12/05 08:23:56;;;;;;;38.63;16.27;;;;;;;;;;6186794;28;20188;-78
2023/12/05 08:26:58;;;;;;;35.67;14.68;;;;;;;;;;6185191;28;20048;-79
2023/12/05 08:30:02;;;;;;;37.10;15.60;;;;;;;;;;6201440;28;20110;-78
2023/12/05 08:33:05;;;;;;;36.58;14.48;;;;;;;;;;6200765;28;20073;-80
2023/12/05 08:36:08;;;;;;;37.58;15.20;;;;;;;;;;6201200;28;20049;-78
2023/12/05 08:39:11;;;;;;;35.90;14.50;;;;;;;;;;6197117;28;20057;-79
2023/12/05 08:42:13;;;;;;;39.78;17.13;;;;;;;;;;6202219;28;20053;-78
2023/12/05 08:45:14;;;;;;;36.70;15.45;;;;;;;;;;6196937;28;20136;-79
2023/12/05 08:48:16;;;;;;;32.40;14.20;;;;;;;;;;6195110;28;20542;-79
2023/12/05 08:51:18;;;;;;;31.13;13.15;;;;;;;;;;6188082;28;20052;-82
2023/12/05 08:54:20;;;;;;;36.00;13.77;;;;;;;;;;6200773;28;20057;-77
2023/12/05 08:57:22;;;;;;;33.05;13.65;;;;;;;;;;6197963;28;20782;-79
2023/12/05 09:00:25;;;;;;;39.22;15.00;;;;;;;;;;6205741;28;20061;-78
2023/12/05 09:03:27;;;;;;;44.08;17.52;;;;;;;;;;6225306;28;20073;-80
2023/12/05 09:06:29;;;;;;;41.35;16.50;;;;;;;;;;6226278;28;20106;-77
2023/12/05 09:09:31;;;;;;;34.40;15.60;;;;;;;;;;6178533;28;20054;-78
2023/12/05 09:12:37;;;;;;;31.70;13.75;;;;;;;;;;6184027;28;20622;-79
2023/12/05 09:15:39;;;;;;;31.80;12.75;;;;;;;;;;6201126;28;20045;-80
2023/12/05 09:18:41;;;;;;;40.00;15.63;;;;;;;;;;6203530;28;20164;-80
2023/12/05 09:21:44;;;;;;;37.50;15.23;;;;;;;;;;6187514;28;20049;-79
2023/12/05 09:24:47;;;;;;;32.97;15.80;;;;;;;;;;6197399;28;20200;-79
2023/12/05 09:27:48;;;;;;;37.60;15.27;;;;;;;;;;6184036;28;20053;-77
2023/12/05 09:30:50;;;;;;;45.72;18.15;;;;;;;;;;6191038;28;20046;-78
2023/12/05 09:33:53;;;;;;;33.97;14.25;;;;;;;;;;6190292;28;20053;-79
2023/12/05 09:36:55;;;;;;;34.70;14.63;;;;;;;;;;6192180;28;20132;-77
2023/12/05 09:39:57;;;;;;;34.90;15.07;;;;;;;;;;6172611;28;20045;-77
2023/12/05 09:43:00;;;;;;;34.05;14.43;;;;;;;;;;6211088;28;20050;-78
2023/12/05 09:46:05;;;;;;;33.92;14.40;;;;;;;;;;6205326;28;20070;-81
2023/12/05 09:49:08;;;;;;;30.58;14.20;;;;;;;;;;6204402;28;20052;-79
2023/12/05 09:52:11;;;;;;;30.83;12.90;;;;;;;;;;6196034;28;20587;-80
2023/12/05 09:55:13;;;;;;;45.65;18.10;;;;;;;;;;6213038;28;20073;-80
2023/12/05 09:58:15;;;;;;;40.90;16.05;;;;;;;;;;6206578;28;20102;-77
2023/12/05 10:01:17;;;;;;;37.33;14.82;;;;;;;;;;6205033;28;20716;-78
2023/12/05 10:04:22;;;;;;;30.45;12.80;;;;;;;;;;6198212;28;20051;-79
2023/12/05 10:07:26;;;;;;;53.80;16.23;;;;;;;;;;6186134;28;20662;-79
2023/12/05 10:10:30;;;;;;;42.05;14.23;;;;;;;;;;6199972;28;20047;-79
2023/12/05 10:13:32;;;;;;;39.28;15.45;;;;;;;;;;6208343;28;20076;-79
2023/12/05 10:16:34;;;;;;;51.03;18.35;;;;;;;;;;6204289;28;20053;-80
2023/12/05 10:19:36;;;;;;;72.65;23.00;;;;;;;;;;6207656;28;20426;-81
2023/12/05 10:22:38;;;;;;;72.78;25.42;;;;;;;;;;6198202;28;20042;-79
2023/12/05 10:25:43;;;;;;;41.20;15.65;;;;;;;;;;6205234;28;20038;-76
2023/12/05 10:28:50;;;;;;;35.42;13.75;;;;;;;;;;6203500;28;20038;-79
2023/12/05 10:31:53;;;;;;;33.78;13.38;;;;;;;;;;6196676;28;20500;-78
2023/12/05 10:35:01;;;;;;;67.93;20.67;;;;;;;;;;6206609;28;20523;-80
2023/12/05 10:38:07;;;;;;;74.47;23.88;;;;;;;;;;6192987;28;20445;-75
2023/12/05 10:41:10;;;;;;;96.05;26.80;;;;;;;;;;6198548;28;20049;-80
2023/12/05 10:44:11;;;;;;;89.32;26.42;;;;;;;;;;6206266;28;20092;-78
2023/12/05 10:47:14;;;;;;;92.43;26.83;;;;;;;;;;6199521;28;20046;-77
2023/12/05 10:50:20;;;;;;;87.13;26.90;;;;;;;;;;6212793;28;20038;-78
2023/12/05 10:53:22;;;;;;;97.45;28.90;;;;;;;;;;6204270;28;20053;-78
2023/12/05 10:56:23;;;;;;;89.18;27.80;;;;;;;;;;6187233;28;20050;-80
2023/12/05 10:59:27;;;;;;;97.30;28.15;;;;;;;;;;6212393;28;20053;-80
2023/12/05 11:02:29;;;;;;;;;;;;;;;;;;6196920;28;20056;-80
2023/12/05 11:05:32;;;;;;;81.07;27.58;;;;;;;;;;6204600;28;19925;-79
2023/12/05 11:08:35;;;;;;;68.75;26.60;;;;;;;;;;6205138;28;20136;-81
2023/12/05 11:11:40;;;;;;;115.82;36.15;;;;;;;;;;6201859;28;20068;-80
2023/12/05 11:14:45;;;;;;;101.63;33.38;;;;;;;;;;6216664;28;20408;-79
2023/12/05 11:17:52;;;;;;;64.85;22.17;;;;;;;;;;6203655;28;20566;-76
2023/12/05 11:21:00;;;;;;;157.95;43.92;;;;;;;;;;6206209;28;20052;-80
2023/12/05 11:24:25;;;;;;;169.80;47.88;;;;;;;;;;6202188;28;20154;-78
2023/12/05 11:27:29;;;;;;;68.50;25.08;;;;;;;;;;6209428;28;20133;-79
2023/12/05 11:30:53;;;;;;;147.20;50.05;;;;;;;;;;6198056;28;20093;-80
2023/12/05 11:34:15;;;;;;;66.25;24.92;;;;;;;;;;6193005;28;20045;-78
2023/12/05 11:37:20;;;;;;;179.17;51.67;;;;;;;;;;6195285;28;20132;-80
2023/12/05 11:40:22;;;;;;;35.28;14.93;;;;;;;;;;6201928;28;20042;-78
2023/12/05 11:43:24;;;;;;;298.48;102.65;;;;;;;;;;6174754;28;20415;-79
2023/12/05 11:46:33;;;;;;;78.05;33.33;;;;;;;;;;6197880;28;20747;-79
2023/12/05 11:49:46;;;;;;;45.30;19.23;;;;;;;;;;6196532;28;20423;-79
2023/12/05 11:52:49;;;;;;;54.78;23.73;;;;;;;;;;6182711;28;20037;-79
2023/12/05 11:55:51;;;;;;;26.05;11.75;;;;;;;;;;6195811;28;20050;-79
2023/12/05 11:58:53;;;;;;;19.23;9.30;;;;;;;;;;6186636;28;20049;-80
2023/12/05 12:01:56;;;;;;;27.02;15.00;;;;;;;;;;6195559;28;20049;-80
2023/12/05 12:05:08;;;;;;;24.75;12.52;;;;;;;;;;6189970;28;20045;-79
2023/12/05 12:08:10;;;;;;;14.48;7.05;;;;;;;;;;6205285;28;20049;-79
2023/12/05 12:11:12;;;;;;;12.38;6.65;;;;;;;;;;6198490;28;20054;-80
2023/12/05 12:14:15;;;;;;;11.52;5.82;;;;;;;;;;6197713;28;20550;-80
2023/12/05 12:17:17;;;;;;;20.00;8.43;;;;;;;;;;6186875;28;20046;-81
2023/12/05 12:20:19;;;;;;;18.08;7.60;;;;;;;;;;6183079;28;20427;-79
2023/12/05 12:23:23;;;;;;;20.52;8.95;;;;;;;;;;6203141;28;20054;-78
2023/12/05 12:26:27;;;;;;;25.15;10.75;;;;;;;;;;6191678;28;20046;-78
2023/12/05 12:29:29;;;;;;;32.70;12.25;;;;;;;;;;6204142;28;20045;-78
2023/12/05 12:32:30;;;;;;;49.25;16.55;;;;;;;;;;6205944;28;20049;-78
2023/12/05 12:35:32;;;;;;;18.73;9.32;;;;;;;;;;6195784;28;20046;-79
2023/12/05 12:38:35;;;;;;;19.13;9.45;;;;;;;;;;6206485;28;20054;-77
2023/12/05 12:41:38;;;;;;;6.57;4.60;;;;;;;;;;6200976;28;20052;-79
2023/12/05 12:44:40;;;;;;;;;;;;;;;;;;6210777;28;20045;-78
2023/12/05 12:47:42;;;;;;;9.43;4.45;;;;;;;;;;6221633;28;19987;-78
2023/12/05 12:50:44;;;;;;;7.65;5.30;;;;;;;;;;6208907;28;20057;-80
2023/12/05 12:53:46;;;;;;;7.20;4.70;;;;;;;;;;6204961;28;20046;-79
2023/12/05 12:56:48;;;;;;;7.20;4.40;;;;;;;;;;6210434;28;20045;-78
2023/12/05 12:59:53;;;;;;;7.28;4.63;;;;;;;;;;6189697;28;20052;-80
2023/12/05 13:03:15;;;;;;;10.85;5.50;;;;;;;;;;6212905;28;20095;-79
2023/12/05 13:06:21;;;;;;;8.52;5.20;;;;;;;;;;6221248;28;20069;-79
2023/12/05 13:09:25;;;;;;;10.70;5.43;;;;;;;;;;6206216;28;20129;-79
2023/12/05 13:12:26;;;;;;;16.08;7.80;;;;;;;;;;6191284;28;20050;-80
2023/12/05 13:15:30;;;;;;;13.35;6.38;;;;;;;;;;6206313;28;20053;-80
2023/12/05 13:18:46;;;;;;;52.58;17.23;;;;;;;;;;6210031;28;21294;-80
2023/12/05 13:21:49;;;;;;;62.30;19.45;;;;;;;;;;6206707;28;20045;-80
2023/12/05 13:24:50;;;;;;;21.98;9.90;;;;;;;;;;6204012;28;20411;-78
2023/12/05 13:27:53;;;;;;;11.63;6.90;;;;;;;;;;6192711;28;20049;-84
2023/12/05 13:30:56;;;;;;;11.65;6.47;;;;;;;;;;6212776;28;20050;-83
2023/12/05 13:33:58;;;;;;;3.97;3.10;;;;;;;;;;6207096;28;20064;-83
2023/12/05 13:37:00;;;;;;;20.93;8.43;;;;;;;;;;6202439;28;20157;-83
2023/12/05 13:40:04;;;;;;;6.13;3.25;;;;;;;;;;6190932;28;20639;-82
2023/12/05 13:43:06;;;;;;;;;;;;;;;;;;6193903;28;20050;-83
2023/12/05 13:46:14;;;;;;;4.55;3.05;;;;;;;;;;6239501;28;19930;-82
2023/12/05 13:49:17;;;;;;;6.00;3.28;;;;;;;;;;6210921;28;20537;-84
2023/12/05 13:52:20;;;;;;;14.75;6.20;;;;;;;;;;6213539;28;20042;-84
2023/12/05 13:55:21;;;;;;;12.38;5.45;;;;;;;;;;6215827;28;20049;-83
2023/12/05 13:58:23;;;;;;;12.30;4.88;;;;;;;;;;6213935;28;20045;-83
2023/12/05 14:01:25;;;;;;;5.95;3.35;;;;;;;;;;6213227;28;20041;-83
2023/12/05 14:04:27;;;;;;;10.70;4.60;;;;;;;;;;6215021;28;20068;-83
2023/12/05 14:07:29;;;;;;;12.98;5.32;;;;;;;;;;6200708;28;20064;-83
2023/12/05 14:10:31;;;;;;;12.75;5.93;;;;;;;;;;6199455;28;20050;-84
2023/12/05 14:13:34;;;;;;;6.47;3.45;;;;;;;;;;6212573;28;20049;-84
2023/12/05 14:16:37;;;;;;;8.65;3.75;;;;;;;;;;6211421;28;20057;-83
2023/12/05 14:19:38;;;;;;;3.05;1.92;;;;;;;;;;6215476;28;20046;-84
2023/12/05 14:22:40;;;;;;;8.63;4.57;;;;;;;;;;6224708;28;20144;-85
2023/12/05 14:25:43;;;;;;;15.05;10.15;;;;;;;;;;6219189;28;20052;-84
2023/12/05 14:28:44;;;;;;;19.27;7.82;;;;;;;;;;6228048;28;20034;-82
2023/12/05 14:31:46;;;;;;;32.70;12.52;;;;;;;;;;6226807;28;20060;-83
2023/12/05 14:34:48;;;;;;;25.15;8.05;;;;;;;;;;6219296;28;20037;-82
2023/12/05 14:37:50;;;;;;;13.70;6.65;;;;;;;;;;6208156;28;20867;-79
2023/12/05 14:40:52;;;;;;;6.70;3.33;;;;;;;;;;6208266;28;20444;-80
2023/12/05 14:43:54;;;;;;;9.10;3.63;;;;;;;;;;6197806;28;20064;-79
2023/12/05 14:46:55;;;;;;;9.38;3.88;;;;;;;;;;6194972;28;20050;-80
2023/12/05 14:49:57;;;;;;;4.68;3.03;;;;;;;;;;6182762;28;20041;-78
2023/12/05 14:52:59;;;;;;;6.90;3.53;;;;;;;;;;6197630;28;20038;-80
2023/12/05 14:56:01;;;;;;;8.13;3.92;;;;;;;;;;6200287;28;20626;-79
2023/12/05 14:59:03;;;;;;;7.75;3.47;;;;;;;;;;6199707;28;20408;-79
2023/12/05 15:02:04;;;;;;;10.25;4.40;;;;;;;;;;6200030;28;20064;-80
2023/12/05 15:05:06;;;;;;;3.15;1.90;;;;;;;;;;6199607;28;20046;-80
2023/12/05 15:08:08;;;;;;;7.63;3.17;;;;;;;;;;6201778;28;20575;-80
2023/12/05 15:11:14;;;;;;;47.65;20.55;;;;;;;;;;6203431;28;20132;-80
2023/12/05 15:14:15;;;;;;;9.02;5.10;;;;;;;;;;6202266;28;20050;-80
2023/12/05 15:17:17;;;;;;;5.68;3.58;;;;;;;;;;6200032;28;20049;-80
2023/12/05 15:20:20;;;;;;;19.08;9.82;;;;;;;;;;6200446;28;20041;-80
2023/12/05 15:23:25;;;;;;;7.13;4.68;;;;;;;;;;6200823;28;20507;-80
2023/12/05 15:26:27;;;;;;;5.32;3.17;;;;;;;;;;6199071;28;20053;-80
2023/12/05 15:29:28;;;;;;;6.95;4.45;;;;;;;;;;6207247;28;20104;-78
2023/12/05 15:32:49;;;;;;;9.95;5.50;;;;;;;;;;6204356;28;20046;-78
2023/12/05 15:35:53;;;;;;;8.40;4.95;;;;;;;;;;6201578;28;20054;-78
2023/12/05 15:38:55;;;;;;;13.38;6.75;;;;;;;;;;6192422;28;20058;-79
2023/12/05 15:41:57;;;;;;;8.13;3.80;;;;;;;;;;6207061;28;20060;-79
2023/12/05 15:44:58;;;;;;;3.13;1.70;;;;;;;;;;6206437;28;20061;-78
2023/12/05 15:48:00;;;;;;;11.43;5.47;;;;;;;;;;6184949;28;20045;-78
2023/12/05 15:51:03;;;;;;;5.35;3.25;;;;;;;;;;6212655;28;20556;-78
2023/12/05 15:54:05;;;;;;;4.68;2.65;;;;;;;;;;6212287;28;20347;-79
2023/12/05 15:57:07;;;;;;;2.08;1.75;;;;;;;;;;6209691;28;20577;-79
2023/12/05 16:00:10;;;;;;;6.75;3.38;;;;;;;;;;6202336;28;20100;-77
2023/12/05 16:03:14;;;;;;;9.02;5.38;;;;;;;;;;6200651;28;20128;-79
2023/12/05 16:06:16;;;;;;;13.70;7.45;;;;;;;;;;6202790;28;20046;-79
2023/12/05 16:09:20;;;;;;;33.30;14.98;;;;;;;;;;6198882;28;20053;-78
2023/12/05 16:12:22;;;;;;;11.60;5.57;;;;;;;;;;6188448;28;20423;-81
2023/12/05 16:15:24;;;;;;;3.60;2.63;;;;;;;;;;6194619;28;20052;-79
2023/12/05 16:18:26;;;;;;;9.38;5.38;;;;;;;;;;6203897;28;20140;-80
2023/12/05 16:21:28;;;;;;;35.83;15.70;;;;;;;;;;6190819;28;20069;-80
2023/12/05 16:24:30;;;;;;;8.55;4.45;;;;;;;;;;6195189;28;20057;-79
2023/12/05 16:27:33;;;;;;;2.60;2.08;;;;;;;;;;6191636;28;20046;-79
2023/12/05 16:30:35;;;;;;;8.50;5.80;;;;;;;;;;6197306;28;20088;-78
2023/12/05 16:33:37;;;;;;;4.30;2.50;;;;;;;;;;6191072;28;20049;-80
2023/12/05 16:36:39;;;;;;;4.47;2.85;;;;;;;;;;6197315;28;20137;-77
2023/12/05 16:39:41;;;;;;;6.43;3.30;;;;;;;;;;6196042;28;20044;-79
2023/12/05 16:42:43;;;;;;;4.93;3.10;;;;;;;;;;6195031;28;20045;-79
2023/12/05 16:45:45;;;;;;;3.47;2.22;;;;;;;;;;6203307;28;20041;-78
2023/12/05 16:48:49;;;;;;;5.27;3.47;;;;;;;;;;6194350;28;20106;-80
2023/12/05 16:51:51;;;;;;;4.07;2.92;;;;;;;;;;6194674;28;20524;-79
2023/12/05 16:54:53;;;;;;;2.53;1.80;;;;;;;;;;6206495;28;20419;-79
2023/12/05 16:57:55;;;;;;;2.35;1.75;;;;;;;;;;6179108;28;20146;-81
2023/12/05 17:00:58;;;;;;;1.75;1.52;;;;;;;;;;6206438;28;20326;-78
2023/12/05 17:03:59;;;;;;;2.65;1.52;;;;;;;;;;6205829;28;20050;-79
2023/12/05 17:07:01;;;;;;;22.55;9.27;;;;;;;;;;6207156;28;20120;-79
2023/12/05 17:10:04;;;;;;;5.35;3.58;;;;;;;;;;6207032;28;20049;-78
2023/12/05 17:13:06;;;;;;;8.75;6.03;;;;;;;;;;6208987;28;20053;-80
2023/12/05 17:16:08;;;;;;;3.38;2.55;;;;;;;;;;6204100;28;20049;-79
2023/12/05 17:19:10;;;;;;;1.97;1.63;;;;;;;;;;6207135;28;20050;-78
2023/12/05 17:22:12;;;;;;;5.22;3.05;;;;;;;;;;6199604;28;20050;-79
2023/12/05 17:25:15;;;;;;;;;;;;;;;;;;6208269;28;20066;-78
2023/12/05 17:28:17;;;;;;;3.95;3.03;;;;;;;;;;6196583;28;19936;-78
2023/12/05 17:31:19;;;;;;;4.85;2.92;;;;;;;;;;6217652;28;20108;-79
2023/12/05 17:34:21;;;;;;;5.85;3.35;;;;;;;;;;6198118;28;20054;-79
2023/12/05 17:37:26;;;;;;;5.30;3.20;;;;;;;;;;6198764;28;20041;-78
2023/12/05 17:40:28;;;;;;;4.63;2.60;;;;;;;;;;6198740;28;20069;-80
2023/12/05 17:43:29;;;;;;;7.47;2.75;;;;;;;;;;6198149;28;20058;-79
2023/12/05 17:46:31;;;;;;;6.93;4.30;;;;;;;;;;6198217;28;20049;-79
2023/12/05 17:49:34;;;;;;;12.98;5.30;;;;;;;;;;6204054;28;20045;-79
2023/12/05 17:52:36;;;;;;;58.22;21.85;;;;;;;;;;6201639;28;20053;-78
2023/12/05 17:55:37;;;;;;;9.73;4.75;;;;;;;;;;6201166;28;20487;-79